sensor_id;sensor_type;location;lat;lon;timestamp;P1;durP1;ratioP1;P2;durP2;ratioP2
73337;SDS011;61575;49.908;35.556;2023-04-24T00:02:02;7.97;;;4.22;;
73337;SDS011;61575;49.908;35.556;2023-04-24T00:05:05;8.98;;;4.45;;
73337;SDS011;61575;49.908;35.556;2023-04-24T00:08:08;7.85;;;4.22;;
73337;SDS011;61575;49.908;35.556;2023-04-24T00:14:12;9.63;;;4.68;;
73337;SDS011;61575;49.908;35.556;2023-04-24T00:17:14;9.50;;;4.40;;
73337;SDS011;61575;49.908;35.556;2023-04-24T00:20:16;9.47;;;4.87;;
73337;SDS011;61575;49.908;35.556;2023-04-24T00:23:18;9.07;;;4.90;;
73337;SDS011;61575;49.908;35.556;2023-04-24T00:26:20;7.30;;;4.22;;
73337;SDS011;61575;49.908;35.556;2023-04-24T00:29:22;9.27;;;4.90;;
73337;SDS011;61575;49.908;35.556;2023-04-24T00:32:24;8.90;;;4.78;;
73337;SDS011;61575;49.908;35.556;2023-04-24T00:35:26;8.60;;;4.97;;
73337;SDS011;61575;49.908;35.556;2023-04-24T00:38:28;8.10;;;4.63;;
73337;SDS011;61575;49.908;35.556;2023-04-24T00:41:30;10.63;;;5.13;;
73337;SDS011;61575;49.908;35.556;2023-04-24T00:44:32;9.00;;;5.35;;
73337;SDS011;61575;49.908;35.556;2023-04-24T00:47:36;11.02;;;5.85;;
73337;SDS011;61575;49.908;35.556;2023-04-24T00:50:38;16.90;;;6.05;;
73337;SDS011;61575;49.908;35.556;2023-04-24T00:53:40;10.90;;;5.20;;
73337;SDS011;61575;49.908;35.556;2023-04-24T00:56:42;12.23;;;6.63;;
73337;SDS011;61575;49.908;35.556;2023-04-24T00:59:45;11.00;;;6.60;;
73337;SDS011;61575;49.908;35.556;2023-04-24T01:02:48;14.20;;;7.10;;
73337;SDS011;61575;49.908;35.556;2023-04-24T01:05:50;13.40;;;7.50;;
73337;SDS011;61575;49.908;35.556;2023-04-24T01:08:54;14.95;;;7.75;;
73337;SDS011;61575;49.908;35.556;2023-04-24T01:11:56;16.05;;;7.45;;
73337;SDS011;61575;49.908;35.556;2023-04-24T01:14:59;14.38;;;6.45;;
73337;SDS011;61575;49.908;35.556;2023-04-24T01:18:01;11.07;;;6.50;;
73337;SDS011;61575;49.908;35.556;2023-04-24T01:21:04;13.57;;;7.18;;
73337;SDS011;61575;49.908;35.556;2023-04-24T01:24:08;13.85;;;6.40;;
73337;SDS011;61575;49.908;35.556;2023-04-24T01:27:10;12.63;;;6.30;;
73337;SDS011;61575;49.908;35.556;2023-04-24T01:30:12;11.82;;;5.72;;
73337;SDS011;61575;49.908;35.556;2023-04-24T01:33:15;12.40;;;5.88;;
73337;SDS011;61575;49.908;35.556;2023-04-24T01:36:17;10.48;;;5.63;;
73337;SDS011;61575;49.908;35.556;2023-04-24T01:39:20;9.15;;;5.20;;
73337;SDS011;61575;49.908;35.556;2023-04-24T01:42:24;12.10;;;5.53;;
73337;SDS011;61575;49.908;35.556;2023-04-24T01:45:27;10.65;;;5.60;;
73337;SDS011;61575;49.908;35.556;2023-04-24T01:48:28;11.27;;;5.75;;
73337;SDS011;61575;49.908;35.556;2023-04-24T01:51:31;10.68;;;5.18;;
73337;SDS011;61575;49.908;35.556;2023-04-24T01:54:33;14.63;;;5.70;;
73337;SDS011;61575;49.908;35.556;2023-04-24T01:57:36;10.68;;;5.22;;
73337;SDS011;61575;49.908;35.556;2023-04-24T02:00:38;10.52;;;5.15;;
73337;SDS011;61575;49.908;35.556;2023-04-24T02:03:40;11.20;;;5.37;;
73337;SDS011;61575;49.908;35.556;2023-04-24T02:06:42;10.05;;;5.15;;
73337;SDS011;61575;49.908;35.556;2023-04-24T02:09:44;11.57;;;5.53;;
73337;SDS011;61575;49.908;35.556;2023-04-24T02:12:46;10.40;;;5.32;;
73337;SDS011;61575;49.908;35.556;2023-04-24T02:15:48;11.10;;;5.43;;
73337;SDS011;61575;49.908;35.556;2023-04-24T02:18:50;10.25;;;5.00;;
73337;SDS011;61575;49.908;35.556;2023-04-24T02:21:52;12.65;;;5.47;;
73337;SDS011;61575;49.908;35.556;2023-04-24T02:24:54;9.27;;;5.10;;
73337;SDS011;61575;49.908;35.556;2023-04-24T02:27:56;9.80;;;5.17;;
73337;SDS011;61575;49.908;35.556;2023-04-24T02:31:00;10.23;;;5.38;;
73337;SDS011;61575;49.908;35.556;2023-04-24T02:34:02;9.15;;;4.75;;
73337;SDS011;61575;49.908;35.556;2023-04-24T02:37:04;8.13;;;4.70;;
73337;SDS011;61575;49.908;35.556;2023-04-24T02:40:06;9.05;;;5.00;;
73337;SDS011;61575;49.908;35.556;2023-04-24T02:43:08;8.68;;;4.50;;
73337;SDS011;61575;49.908;35.556;2023-04-24T02:46:11;11.23;;;5.18;;
73337;SDS011;61575;49.908;35.556;2023-04-24T02:49:13;12.00;;;6.03;;
73337;SDS011;61575;49.908;35.556;2023-04-24T02:52:15;10.15;;;4.88;;
73337;SDS011;61575;49.908;35.556;2023-04-24T02:55:18;11.25;;;4.85;;
73337;SDS011;61575;49.908;35.556;2023-04-24T02:58:20;8.90;;;4.50;;
73337;SDS011;61575;49.908;35.556;2023-04-24T03:01:22;10.38;;;4.43;;
73337;SDS011;61575;49.908;35.556;2023-04-24T03:04:24;10.60;;;4.90;;
73337;SDS011;61575;49.908;35.556;2023-04-24T03:07:27;9.25;;;4.47;;
73337;SDS011;61575;49.908;35.556;2023-04-24T03:10:29;7.50;;;4.13;;
73337;SDS011;61575;49.908;35.556;2023-04-24T03:13:31;7.35;;;4.03;;
73337;SDS011;61575;49.908;35.556;2023-04-24T03:16:32;7.63;;;4.15;;
73337;SDS011;61575;49.908;35.556;2023-04-24T03:19:35;7.43;;;4.03;;
73337;SDS011;61575;49.908;35.556;2023-04-24T03:22:42;8.52;;;4.50;;
73337;SDS011;61575;49.908;35.556;2023-04-24T03:25:45;10.20;;;4.97;;
73337;SDS011;61575;49.908;35.556;2023-04-24T03:28:47;8.63;;;4.13;;
73337;SDS011;61575;49.908;35.556;2023-04-24T03:31:49;9.80;;;4.20;;
73337;SDS011;61575;49.908;35.556;2023-04-24T03:34:51;9.63;;;3.65;;
73337;SDS011;61575;49.908;35.556;2023-04-24T03:37:54;9.30;;;4.60;;
73337;SDS011;61575;49.908;35.556;2023-04-24T03:41:16;9.43;;;4.22;;
73337;SDS011;61575;49.908;35.556;2023-04-24T03:44:24;7.93;;;4.15;;
73337;SDS011;61575;49.908;35.556;2023-04-24T03:47:26;7.45;;;3.60;;
73337;SDS011;61575;49.908;35.556;2023-04-24T03:50:31;7.95;;;3.90;;
73337;SDS011;61575;49.908;35.556;2023-04-24T03:56:37;8.23;;;3.70;;
73337;SDS011;61575;49.908;35.556;2023-04-24T03:59:39;8.18;;;3.75;;
73337;SDS011;61575;49.908;35.556;2023-04-24T04:02:50;6.75;;;3.47;;
73337;SDS011;61575;49.908;35.556;2023-04-24T04:05:53;8.38;;;3.78;;
73337;SDS011;61575;49.908;35.556;2023-04-24T04:08:56;6.70;;;3.45;;
73337;SDS011;61575;49.908;35.556;2023-04-24T04:11:58;7.70;;;3.65;;
73337;SDS011;61575;49.908;35.556;2023-04-24T04:15:00;7.60;;;3.37;;
73337;SDS011;61575;49.908;35.556;2023-04-24T04:18:02;9.55;;;3.47;;
73337;SDS011;61575;49.908;35.556;2023-04-24T04:21:05;7.15;;;3.10;;
73337;SDS011;61575;49.908;35.556;2023-04-24T04:24:07;7.10;;;3.05;;
73337;SDS011;61575;49.908;35.556;2023-04-24T04:27:15;5.63;;;3.15;;
73337;SDS011;61575;49.908;35.556;2023-04-24T04:30:28;5.60;;;2.83;;
73337;SDS011;61575;49.908;35.556;2023-04-24T04:33:37;5.45;;;2.78;;
73337;SDS011;61575;49.908;35.556;2023-04-24T04:36:42;5.35;;;3.20;;
73337;SDS011;61575;49.908;35.556;2023-04-24T04:40:08;6.20;;;2.80;;
73337;SDS011;61575;49.908;35.556;2023-04-24T04:43:23;5.72;;;2.70;;
73337;SDS011;61575;49.908;35.556;2023-04-24T04:46:27;6.95;;;2.78;;
73337;SDS011;61575;49.908;35.556;2023-04-24T04:49:41;7.05;;;2.70;;
73337;SDS011;61575;49.908;35.556;2023-04-24T04:52:54;5.10;;;2.55;;
73337;SDS011;61575;49.908;35.556;2023-04-24T04:56:04;7.97;;;2.80;;
73337;SDS011;61575;49.908;35.556;2023-04-24T04:59:14;6.38;;;2.55;;
73337;SDS011;61575;49.908;35.556;2023-04-24T05:02:16;4.97;;;2.33;;
73337;SDS011;61575;49.908;35.556;2023-04-24T05:05:19;4.15;;;2.20;;
73337;SDS011;61575;49.908;35.556;2023-04-24T05:11:28;5.25;;;1.98;;
73337;SDS011;61575;49.908;35.556;2023-04-24T05:14:32;5.30;;;2.28;;
73337;SDS011;61575;49.908;35.556;2023-04-24T05:17:34;3.77;;;2.00;;
73337;SDS011;61575;49.908;35.556;2023-04-24T05:20:37;5.68;;;2.25;;
73337;SDS011;61575;49.908;35.556;2023-04-24T05:23:39;4.57;;;1.88;;
73337;SDS011;61575;49.908;35.556;2023-04-24T05:26:41;4.97;;;2.08;;
73337;SDS011;61575;49.908;35.556;2023-04-24T05:29:44;3.20;;;1.80;;
73337;SDS011;61575;49.908;35.556;2023-04-24T05:32:47;5.00;;;1.75;;
73337;SDS011;61575;49.908;35.556;2023-04-24T05:35:49;4.07;;;1.87;;
73337;SDS011;61575;49.908;35.556;2023-04-24T05:38:51;4.53;;;1.80;;
73337;SDS011;61575;49.908;35.556;2023-04-24T05:44:59;4.55;;;2.13;;
73337;SDS011;61575;49.908;35.556;2023-04-24T05:48:01;3.73;;;1.90;;
73337;SDS011;61575;49.908;35.556;2023-04-24T05:51:04;5.13;;;1.77;;
73337;SDS011;61575;49.908;35.556;2023-04-24T05:54:06;3.90;;;2.17;;
73337;SDS011;61575;49.908;35.556;2023-04-24T05:57:08;8.00;;;2.63;;
73337;SDS011;61575;49.908;35.556;2023-04-24T06:00:24;4.18;;;1.80;;
73337;SDS011;61575;49.908;35.556;2023-04-24T06:03:33;4.20;;;2.15;;
73337;SDS011;61575;49.908;35.556;2023-04-24T06:06:37;5.07;;;2.08;;
73337;SDS011;61575;49.908;35.556;2023-04-24T06:09:39;4.00;;;1.57;;
73337;SDS011;61575;49.908;35.556;2023-04-24T06:12:41;4.70;;;1.85;;
73337;SDS011;61575;49.908;35.556;2023-04-24T06:15:51;4.07;;;1.60;;
73337;SDS011;61575;49.908;35.556;2023-04-24T06:19:03;3.88;;;1.63;;
73337;SDS011;61575;49.908;35.556;2023-04-24T06:22:05;3.80;;;1.63;;
73337;SDS011;61575;49.908;35.556;2023-04-24T06:25:10;3.97;;;1.80;;
73337;SDS011;61575;49.908;35.556;2023-04-24T06:28:12;4.05;;;1.38;;
73337;SDS011;61575;49.908;35.556;2023-04-24T06:31:14;3.08;;;1.30;;
73337;SDS011;61575;49.908;35.556;2023-04-24T06:34:16;4.50;;;1.27;;
73337;SDS011;61575;49.908;35.556;2023-04-24T06:37:18;2.10;;;1.00;;
73337;SDS011;61575;49.908;35.556;2023-04-24T06:40:22;3.13;;;1.20;;
73337;SDS011;61575;49.908;35.556;2023-04-24T06:43:24;3.67;;;1.10;;
73337;SDS011;61575;49.908;35.556;2023-04-24T06:46:26;2.97;;;1.10;;
73337;SDS011;61575;49.908;35.556;2023-04-24T06:49:29;3.05;;;1.58;;
73337;SDS011;61575;49.908;35.556;2023-04-24T06:52:31;3.15;;;1.35;;
73337;SDS011;61575;49.908;35.556;2023-04-24T06:55:35;2.58;;;1.00;;
73337;SDS011;61575;49.908;35.556;2023-04-24T06:58:37;4.05;;;1.30;;
73337;SDS011;61575;49.908;35.556;2023-04-24T07:01:39;3.28;;;1.23;;
73337;SDS011;61575;49.908;35.556;2023-04-24T07:04:41;2.50;;;1.10;;
73337;SDS011;61575;49.908;35.556;2023-04-24T07:07:43;3.30;;;1.15;;
73337;SDS011;61575;49.908;35.556;2023-04-24T07:10:46;3.10;;;1.23;;
73337;SDS011;61575;49.908;35.556;2023-04-24T07:13:48;1.60;;;0.90;;
73337;SDS011;61575;49.908;35.556;2023-04-24T07:16:50;4.20;;;1.58;;
73337;SDS011;61575;49.908;35.556;2023-04-24T07:19:51;2.17;;;1.05;;
73337;SDS011;61575;49.908;35.556;2023-04-24T07:22:53;3.55;;;1.30;;
73337;SDS011;61575;49.908;35.556;2023-04-24T07:25:55;1.77;;;0.80;;
73337;SDS011;61575;49.908;35.556;2023-04-24T07:28:57;1.70;;;0.80;;
73337;SDS011;61575;49.908;35.556;2023-04-24T07:31:59;2.30;;;1.00;;
73337;SDS011;61575;49.908;35.556;2023-04-24T07:35:04;2.53;;;1.00;;
73337;SDS011;61575;49.908;35.556;2023-04-24T07:41:08;1.65;;;0.80;;
73337;SDS011;61575;49.908;35.556;2023-04-24T07:44:10;3.33;;;0.90;;
73337;SDS011;61575;49.908;35.556;2023-04-24T07:47:13;2.17;;;1.00;;
73337;SDS011;61575;49.908;35.556;2023-04-24T07:50:18;3.35;;;1.00;;
73337;SDS011;61575;49.908;35.556;2023-04-24T07:53:20;3.10;;;1.10;;
73337;SDS011;61575;49.908;35.556;2023-04-24T07:56:22;4.20;;;1.00;;
73337;SDS011;61575;49.908;35.556;2023-04-24T07:59:24;4.25;;;1.00;;
73337;SDS011;61575;49.908;35.556;2023-04-24T08:02:26;3.47;;;1.10;;
73337;SDS011;61575;49.908;35.556;2023-04-24T08:05:28;2.65;;;1.10;;
73337;SDS011;61575;49.908;35.556;2023-04-24T08:08:31;3.17;;;1.10;;
73337;SDS011;61575;49.908;35.556;2023-04-24T08:11:33;3.40;;;1.00;;
73337;SDS011;61575;49.908;35.556;2023-04-24T08:14:35;3.25;;;1.10;;
73337;SDS011;61575;49.908;35.556;2023-04-24T08:17:37;2.10;;;0.80;;
73337;SDS011;61575;49.908;35.556;2023-04-24T08:20:39;3.72;;;1.17;;
73337;SDS011;61575;49.908;35.556;2023-04-24T08:23:41;2.53;;;0.90;;
73337;SDS011;61575;49.908;35.556;2023-04-24T08:26:43;1.75;;;0.70;;
73337;SDS011;61575;49.908;35.556;2023-04-24T08:29:45;2.08;;;0.90;;
73337;SDS011;61575;49.908;35.556;2023-04-24T08:32:47;1.27;;;0.68;;
73337;SDS011;61575;49.908;35.556;2023-04-24T08:35:49;3.45;;;0.90;;
73337;SDS011;61575;49.908;35.556;2023-04-24T08:41:54;2.42;;;1.10;;
73337;SDS011;61575;49.908;35.556;2023-04-24T08:44:56;1.60;;;0.90;;
73337;SDS011;61575;49.908;35.556;2023-04-24T08:47:59;2.65;;;0.80;;
73337;SDS011;61575;49.908;35.556;2023-04-24T08:54:04;1.70;;;0.90;;
73337;SDS011;61575;49.908;35.556;2023-04-24T08:57:07;1.60;;;0.90;;
73337;SDS011;61575;49.908;35.556;2023-04-24T09:00:13;2.67;;;0.90;;
73337;SDS011;61575;49.908;35.556;2023-04-24T09:03:16;1.23;;;0.70;;
73337;SDS011;61575;49.908;35.556;2023-04-24T09:06:20;4.18;;;1.20;;
73337;SDS011;61575;49.908;35.556;2023-04-24T09:09:23;2.53;;;1.10;;
73337;SDS011;61575;49.908;35.556;2023-04-24T09:12:26;3.63;;;1.08;;
73337;SDS011;61575;49.908;35.556;2023-04-24T09:18:30;2.53;;;1.00;;
73337;SDS011;61575;49.908;35.556;2023-04-24T09:21:32;2.80;;;0.90;;
73337;SDS011;61575;49.908;35.556;2023-04-24T09:24:36;2.17;;;0.80;;
73337;SDS011;61575;49.908;35.556;2023-04-24T09:27:42;2.05;;;0.80;;
73337;SDS011;61575;49.908;35.556;2023-04-24T09:30:46;3.25;;;0.90;;
73337;SDS011;61575;49.908;35.556;2023-04-24T09:34:03;3.13;;;1.00;;
73337;SDS011;61575;49.908;35.556;2023-04-24T09:37:09;2.33;;;0.80;;
73337;SDS011;61575;49.908;35.556;2023-04-24T09:40:18;1.80;;;0.70;;
73337;SDS011;61575;49.908;35.556;2023-04-24T09:43:22;1.88;;;0.70;;
73337;SDS011;61575;49.908;35.556;2023-04-24T09:46:31;2.25;;;0.80;;
73337;SDS011;61575;49.908;35.556;2023-04-24T09:49:34;3.15;;;1.00;;
73337;SDS011;61575;49.908;35.556;2023-04-24T09:52:45;2.28;;;0.80;;
73337;SDS011;61575;49.908;35.556;2023-04-24T09:56:06;1.55;;;0.73;;
73337;SDS011;61575;49.908;35.556;2023-04-24T09:59:12;1.77;;;0.70;;
73337;SDS011;61575;49.908;35.556;2023-04-24T10:02:18;0.98;;;0.63;;
73337;SDS011;61575;49.908;35.556;2023-04-24T10:05:25;2.88;;;0.70;;
73337;SDS011;61575;49.908;35.556;2023-04-24T10:08:33;1.48;;;0.60;;
73337;SDS011;61575;49.908;35.556;2023-04-24T10:11:36;1.45;;;0.80;;
73337;SDS011;61575;49.908;35.556;2023-04-24T10:17:44;1.00;;;0.60;;
73337;SDS011;61575;49.908;35.556;2023-04-24T10:20:47;1.63;;;0.73;;
73337;SDS011;61575;49.908;35.556;2023-04-24T10:23:50;2.72;;;0.65;;
73337;SDS011;61575;49.908;35.556;2023-04-24T10:26:52;1.42;;;0.70;;
73337;SDS011;61575;49.908;35.556;2023-04-24T10:29:55;2.47;;;0.70;;
73337;SDS011;61575;49.908;35.556;2023-04-24T10:32:59;1.38;;;0.82;;
73337;SDS011;61575;49.908;35.556;2023-04-24T10:39:03;2.63;;;0.80;;
73337;SDS011;61575;49.908;35.556;2023-04-24T10:42:15;6.88;;;2.40;;
73337;SDS011;61575;49.908;35.556;2023-04-24T10:45:19;7.43;;;1.70;;
73337;SDS011;61575;49.908;35.556;2023-04-24T10:48:26;3.88;;;1.00;;
73337;SDS011;61575;49.908;35.556;2023-04-24T10:54:49;2.03;;;0.90;;
73337;SDS011;61575;49.908;35.556;2023-04-24T10:58:01;1.88;;;0.70;;
73337;SDS011;61575;49.908;35.556;2023-04-24T11:01:06;1.58;;;0.77;;
73337;SDS011;61575;49.908;35.556;2023-04-24T11:04:09;3.72;;;0.93;;
73337;SDS011;61575;49.908;35.556;2023-04-24T11:07:12;1.17;;;0.63;;
73337;SDS011;61575;49.908;35.556;2023-04-24T11:14:29;2.55;;;0.73;;
73337;SDS011;61575;49.908;35.556;2023-04-24T11:17:00;1.95;;;0.93;;
73337;SDS011;61575;49.908;35.556;2023-04-24T11:20:07;2.88;;;0.80;;
73337;SDS011;61575;49.908;35.556;2023-04-24T11:23:28;3.00;;;0.80;;
73337;SDS011;61575;49.908;35.556;2023-04-24T11:26:38;2.10;;;0.80;;
73337;SDS011;61575;49.908;35.556;2023-04-24T11:29:41;2.08;;;0.80;;
73337;SDS011;61575;49.908;35.556;2023-04-24T11:32:55;1.20;;;0.70;;
73337;SDS011;61575;49.908;35.556;2023-04-24T11:36:06;2.58;;;0.80;;
73337;SDS011;61575;49.908;35.556;2023-04-24T11:39:08;3.55;;;0.90;;
73337;SDS011;61575;49.908;35.556;2023-04-24T11:42:14;1.65;;;0.60;;
73337;SDS011;61575;49.908;35.556;2023-04-24T11:45:26;1.23;;;0.70;;
73337;SDS011;61575;49.908;35.556;2023-04-24T11:48:29;1.85;;;0.80;;
73337;SDS011;61575;49.908;35.556;2023-04-24T11:51:37;2.50;;;0.90;;
73337;SDS011;61575;49.908;35.556;2023-04-24T11:54:53;2.38;;;0.70;;
73337;SDS011;61575;49.908;35.556;2023-04-24T11:57:56;2.47;;;0.98;;
73337;SDS011;61575;49.908;35.556;2023-04-24T12:01:00;1.13;;;0.70;;
73337;SDS011;61575;49.908;35.556;2023-04-24T12:04:02;1.50;;;0.70;;
73337;SDS011;61575;49.908;35.556;2023-04-24T12:10:07;2.17;;;0.73;;
73337;SDS011;61575;49.908;35.556;2023-04-24T12:16:12;1.10;;;0.70;;
73337;SDS011;61575;49.908;35.556;2023-04-24T12:19:18;2.88;;;0.70;;
73337;SDS011;61575;49.908;35.556;2023-04-24T12:22:23;1.73;;;0.70;;
73337;SDS011;61575;49.908;35.556;2023-04-24T12:25:26;1.98;;;0.95;;
73337;SDS011;61575;49.908;35.556;2023-04-24T12:28:36;1.10;;;0.70;;
73337;SDS011;61575;49.908;35.556;2023-04-24T12:31:39;1.20;;;0.70;;
73337;SDS011;61575;49.908;35.556;2023-04-24T12:34:43;4.57;;;0.85;;
73337;SDS011;61575;49.908;35.556;2023-04-24T12:37:45;2.35;;;0.80;;
73337;SDS011;61575;49.908;35.556;2023-04-24T12:40:48;1.30;;;0.70;;
73337;SDS011;61575;49.908;35.556;2023-04-24T12:44:09;1.55;;;0.70;;
73337;SDS011;61575;49.908;35.556;2023-04-24T12:47:12;1.10;;;0.73;;
73337;SDS011;61575;49.908;35.556;2023-04-24T12:50:15;3.25;;;0.88;;
73337;SDS011;61575;49.908;35.556;2023-04-24T12:53:18;1.35;;;0.70;;
73337;SDS011;61575;49.908;35.556;2023-04-24T12:56:20;1.75;;;0.90;;
73337;SDS011;61575;49.908;35.556;2023-04-24T12:59:22;2.00;;;0.95;;
73337;SDS011;61575;49.908;35.556;2023-04-24T13:02:24;1.80;;;0.90;;
73337;SDS011;61575;49.908;35.556;2023-04-24T13:05:28;1.70;;;0.80;;
73337;SDS011;61575;49.908;35.556;2023-04-24T13:08:30;2.38;;;0.75;;
73337;SDS011;61575;49.908;35.556;2023-04-24T13:11:32;1.30;;;0.82;;
73337;SDS011;61575;49.908;35.556;2023-04-24T13:14:34;1.95;;;0.90;;
73337;SDS011;61575;49.908;35.556;2023-04-24T13:17:36;2.30;;;0.80;;
73337;SDS011;61575;49.908;35.556;2023-04-24T13:20:38;2.10;;;0.80;;
73337;SDS011;61575;49.908;35.556;2023-04-24T13:23:42;1.77;;;0.80;;
73337;SDS011;61575;49.908;35.556;2023-04-24T13:26:44;1.98;;;0.80;;
73337;SDS011;61575;49.908;35.556;2023-04-24T13:29:46;6.05;;;1.20;;
73337;SDS011;61575;49.908;35.556;2023-04-24T13:32:48;2.40;;;0.80;;
73337;SDS011;61575;49.908;35.556;2023-04-24T13:35:50;1.08;;;0.70;;
73337;SDS011;61575;49.908;35.556;2023-04-24T13:38:52;2.15;;;0.70;;
73337;SDS011;61575;49.908;35.556;2023-04-24T13:41:53;3.90;;;1.05;;
73337;SDS011;61575;49.908;35.556;2023-04-24T13:44:56;1.55;;;0.68;;
73337;SDS011;61575;49.908;35.556;2023-04-24T13:47:58;1.48;;;0.70;;
73337;SDS011;61575;49.908;35.556;2023-04-24T13:51:00;1.90;;;0.70;;
73337;SDS011;61575;49.908;35.556;2023-04-24T13:54:02;2.20;;;0.88;;
73337;SDS011;61575;49.908;35.556;2023-04-24T13:57:04;1.48;;;0.63;;
73337;SDS011;61575;49.908;35.556;2023-04-24T14:00:06;2.10;;;0.82;;
73337;SDS011;61575;49.908;35.556;2023-04-24T14:03:12;2.13;;;0.90;;
73337;SDS011;61575;49.908;35.556;2023-04-24T14:06:14;1.23;;;0.70;;
73337;SDS011;61575;49.908;35.556;2023-04-24T14:09:16;2.13;;;0.75;;
73337;SDS011;61575;49.908;35.556;2023-04-24T14:12:18;1.25;;;0.70;;
73337;SDS011;61575;49.908;35.556;2023-04-24T14:15:21;2.75;;;0.80;;
73337;SDS011;61575;49.908;35.556;2023-04-24T14:18:23;2.30;;;0.80;;
73337;SDS011;61575;49.908;35.556;2023-04-24T14:21:25;1.80;;;0.60;;
73337;SDS011;61575;49.908;35.556;2023-04-24T14:24:26;1.63;;;0.60;;
73337;SDS011;61575;49.908;35.556;2023-04-24T14:27:28;1.27;;;0.70;;
73337;SDS011;61575;49.908;35.556;2023-04-24T14:30:31;2.00;;;0.80;;
73337;SDS011;61575;49.908;35.556;2023-04-24T14:33:33;3.03;;;0.88;;
73337;SDS011;61575;49.908;35.556;2023-04-24T14:36:35;3.90;;;0.85;;
73337;SDS011;61575;49.908;35.556;2023-04-24T14:39:37;2.42;;;0.70;;
73337;SDS011;61575;49.908;35.556;2023-04-24T14:42:39;2.78;;;1.08;;
73337;SDS011;61575;49.908;35.556;2023-04-24T14:45:42;1.25;;;0.68;;
73337;SDS011;61575;49.908;35.556;2023-04-24T14:48:44;1.73;;;0.80;;
73337;SDS011;61575;49.908;35.556;2023-04-24T14:51:46;3.17;;;0.80;;
73337;SDS011;61575;49.908;35.556;2023-04-24T14:54:48;3.30;;;1.00;;
73337;SDS011;61575;49.908;35.556;2023-04-24T14:57:50;2.28;;;0.90;;
73337;SDS011;61575;49.908;35.556;2023-04-24T15:00:52;2.78;;;1.08;;
73337;SDS011;61575;49.908;35.556;2023-04-24T15:03:55;2.40;;;0.82;;
73337;SDS011;61575;49.908;35.556;2023-04-24T15:06:58;2.08;;;0.88;;
73337;SDS011;61575;49.908;35.556;2023-04-24T15:10:00;1.83;;;0.82;;
73337;SDS011;61575;49.908;35.556;2023-04-24T15:13:01;1.35;;;0.70;;
73337;SDS011;61575;49.908;35.556;2023-04-24T15:16:03;2.10;;;0.90;;
73337;SDS011;61575;49.908;35.556;2023-04-24T15:19:06;1.63;;;0.70;;
73337;SDS011;61575;49.908;35.556;2023-04-24T15:22:09;2.92;;;0.90;;
73337;SDS011;61575;49.908;35.556;2023-04-24T15:25:11;4.57;;;1.20;;
73337;SDS011;61575;49.908;35.556;2023-04-24T15:28:13;4.45;;;1.42;;
73337;SDS011;61575;49.908;35.556;2023-04-24T15:31:18;2.97;;;1.10;;
73337;SDS011;61575;49.908;35.556;2023-04-24T15:34:20;3.22;;;1.05;;
73337;SDS011;61575;49.908;35.556;2023-04-24T15:37:22;2.83;;;1.00;;
73337;SDS011;61575;49.908;35.556;2023-04-24T15:40:24;4.95;;;1.40;;
73337;SDS011;61575;49.908;35.556;2023-04-24T15:43:26;5.45;;;1.60;;
73337;SDS011;61575;49.908;35.556;2023-04-24T15:46:30;4.10;;;1.45;;
73337;SDS011;61575;49.908;35.556;2023-04-24T15:49:34;3.20;;;1.10;;
73337;SDS011;61575;49.908;35.556;2023-04-24T15:52:36;3.72;;;1.42;;
73337;SDS011;61575;49.908;35.556;2023-04-24T15:55:38;4.95;;;1.40;;
73337;SDS011;61575;49.908;35.556;2023-04-24T15:58:40;3.85;;;1.67;;
73337;SDS011;61575;49.908;35.556;2023-04-24T16:01:43;5.82;;;2.00;;
73337;SDS011;61575;49.908;35.556;2023-04-24T16:04:46;5.20;;;2.00;;
73337;SDS011;61575;49.908;35.556;2023-04-24T16:07:49;6.82;;;2.10;;
73337;SDS011;61575;49.908;35.556;2023-04-24T16:10:52;7.10;;;2.20;;
73337;SDS011;61575;49.908;35.556;2023-04-24T16:13:54;6.03;;;1.90;;
73337;SDS011;61575;49.908;35.556;2023-04-24T16:16:56;5.95;;;2.10;;
73337;SDS011;61575;49.908;35.556;2023-04-24T16:19:57;6.88;;;1.98;;
73337;SDS011;61575;49.908;35.556;2023-04-24T16:22:59;6.30;;;2.10;;
73337;SDS011;61575;49.908;35.556;2023-04-24T16:26:01;5.07;;;2.15;;
73337;SDS011;61575;49.908;35.556;2023-04-24T16:29:03;5.47;;;2.35;;
73337;SDS011;61575;49.908;35.556;2023-04-24T16:32:05;8.02;;;2.33;;
73337;SDS011;61575;49.908;35.556;2023-04-24T16:35:07;12.07;;;3.42;;
73337;SDS011;61575;49.908;35.556;2023-04-24T16:38:09;13.00;;;4.10;;
73337;SDS011;61575;49.908;35.556;2023-04-24T16:41:11;11.70;;;4.13;;
73337;SDS011;61575;49.908;35.556;2023-04-24T16:44:13;11.57;;;4.00;;
73337;SDS011;61575;49.908;35.556;2023-04-24T16:47:17;12.05;;;3.78;;
73337;SDS011;61575;49.908;35.556;2023-04-24T16:50:20;13.85;;;4.15;;
73337;SDS011;61575;49.908;35.556;2023-04-24T16:53:22;9.93;;;3.65;;
73337;SDS011;61575;49.908;35.556;2023-04-24T16:56:24;11.00;;;3.40;;
73337;SDS011;61575;49.908;35.556;2023-04-24T16:59:26;10.07;;;3.90;;
73337;SDS011;61575;49.908;35.556;2023-04-24T17:02:29;8.82;;;3.75;;
73337;SDS011;61575;49.908;35.556;2023-04-24T17:05:32;8.15;;;4.38;;
73337;SDS011;61575;49.908;35.556;2023-04-24T17:08:34;9.90;;;4.55;;
73337;SDS011;61575;49.908;35.556;2023-04-24T17:11:36;13.57;;;5.57;;
73337;SDS011;61575;49.908;35.556;2023-04-24T17:14:38;10.60;;;4.65;;
73337;SDS011;61575;49.908;35.556;2023-04-24T17:17:40;13.60;;;5.45;;
73337;SDS011;61575;49.908;35.556;2023-04-24T17:20:44;11.73;;;5.25;;
73337;SDS011;61575;49.908;35.556;2023-04-24T17:23:46;15.02;;;5.40;;
73337;SDS011;61575;49.908;35.556;2023-04-24T17:26:48;14.15;;;5.72;;
73337;SDS011;61575;49.908;35.556;2023-04-24T17:29:50;12.88;;;5.85;;
73337;SDS011;61575;49.908;35.556;2023-04-24T17:32:53;12.60;;;6.05;;
73337;SDS011;61575;49.908;35.556;2023-04-24T17:35:55;30.35;;;14.13;;
73337;SDS011;61575;49.908;35.556;2023-04-24T17:38:58;40.42;;;20.55;;
73337;SDS011;61575;49.908;35.556;2023-04-24T17:42:00;42.67;;;18.00;;
73337;SDS011;61575;49.908;35.556;2023-04-24T17:45:02;41.70;;;18.92;;
73337;SDS011;61575;49.908;35.556;2023-04-24T17:48:04;33.35;;;15.38;;
73337;SDS011;61575;49.908;35.556;2023-04-24T17:51:06;26.02;;;13.55;;
73337;SDS011;61575;49.908;35.556;2023-04-24T17:54:08;37.25;;;20.13;;
73337;SDS011;61575;49.908;35.556;2023-04-24T17:57:11;35.90;;;19.30;;
73337;SDS011;61575;49.908;35.556;2023-04-24T18:00:13;39.97;;;19.83;;
73337;SDS011;61575;49.908;35.556;2023-04-24T18:03:15;33.80;;;17.67;;
73337;SDS011;61575;49.908;35.556;2023-04-24T18:06:17;40.05;;;19.38;;
73337;SDS011;61575;49.908;35.556;2023-04-24T18:09:19;109.95;;;42.05;;
73337;SDS011;61575;49.908;35.556;2023-04-24T18:12:22;97.43;;;36.50;;
73337;SDS011;61575;49.908;35.556;2023-04-24T18:15:24;83.35;;;30.27;;
73337;SDS011;61575;49.908;35.556;2023-04-24T18:18:27;56.30;;;21.85;;
73337;SDS011;61575;49.908;35.556;2023-04-24T18:21:30;38.00;;;14.15;;
73337;SDS011;61575;49.908;35.556;2023-04-24T18:24:32;24.23;;;9.02;;
73337;SDS011;61575;49.908;35.556;2023-04-24T18:27:35;13.50;;;6.10;;
73337;SDS011;61575;49.908;35.556;2023-04-24T18:30:37;12.00;;;5.07;;
73337;SDS011;61575;49.908;35.556;2023-04-24T18:33:39;14.93;;;5.70;;
73337;SDS011;61575;49.908;35.556;2023-04-24T18:36:41;14.73;;;6.18;;
73337;SDS011;61575;49.908;35.556;2023-04-24T18:39:43;29.93;;;10.10;;
73337;SDS011;61575;49.908;35.556;2023-04-24T18:42:45;45.38;;;17.92;;
73337;SDS011;61575;49.908;35.556;2023-04-24T18:45:48;54.47;;;19.98;;
73337;SDS011;61575;49.908;35.556;2023-04-24T18:48:50;46.37;;;18.73;;